sensor_id;sensor_type;location;lat;lon;timestamp;pressure;altitude;pressure_sealevel;temperature;humidity
76609;BME280;65928;53.936;27.540;2022-12-26T00:02:17;100255.25;;;-3.82;71.77
76609;BME280;65928;53.936;27.540;2022-12-26T00:04:43;99924.31;;;-5.79;72.61
76609;BME280;65928;53.936;27.540;2022-12-26T00:10:30;99899.31;;;-5.52;71.18
76609;BME280;65928;53.936;27.540;2022-12-26T00:12:55;100233.41;;;-3.60;71.44
76609;BME280;65928;53.936;27.540;2022-12-26T00:15:20;99907.88;;;-5.53;71.58
76609;BME280;65928;53.936;27.540;2022-12-26T00:17:46;100270.50;;;-3.58;71.90
76609;BME280;65928;53.936;27.540;2022-12-26T00:20:12;99909.06;;;-5.07;70.35
76609;BME280;65928;53.936;27.540;2022-12-26T00:22:37;99907.09;;;-5.81;71.84
76609;BME280;65928;53.936;27.540;2022-12-26T00:25:03;100197.13;;;-4.01;72.57
76609;BME280;65928;53.936;27.540;2022-12-26T00:34:12;100238.22;;;-3.40;71.38
76609;BME280;65928;53.936;27.540;2022-12-26T00:36:37;100234.22;;;-3.63;71.94
76609;BME280;65928;53.936;27.540;2022-12-26T00:39:03;99963.63;;;-5.22;72.49
76609;BME280;65928;53.936;27.540;2022-12-26T00:41:29;99929.75;;;-5.37;71.83
76609;BME280;65928;53.936;27.540;2022-12-26T00:43:55;99933.97;;;-5.40;72.32
76609;BME280;65928;53.936;27.540;2022-12-26T00:49:42;100213.66;;;-3.60;71.95
76609;BME280;65928;53.936;27.540;2022-12-26T00:52:07;100223.53;;;-3.42;71.96
76609;BME280;65928;53.936;27.540;2022-12-26T00:54:33;100216.56;;;-3.46;71.64
76609;BME280;65928;53.936;27.540;2022-12-26T00:56:58;100222.44;;;-3.52;72.33
76609;BME280;65928;53.936;27.540;2022-12-26T00:59:24;100222.22;;;-3.25;70.65
76609;BME280;65928;53.936;27.540;2022-12-26T01:01:49;99888.56;;;-5.03;70.58
76609;BME280;65928;53.936;27.540;2022-12-26T01:04:15;99921.03;;;-4.74;69.11
76609;BME280;65928;53.936;27.540;2022-12-26T01:06:40;100254.47;;;-3.80;70.98
76609;BME280;65928;53.936;27.540;2022-12-26T01:09:24;99892.50;;;-5.50;70.35
76609;BME280;65928;53.936;27.540;2022-12-26T01:11:49;100211.03;;;-3.61;71.43
76609;BME280;65928;53.936;27.540;2022-12-26T01:14:16;100245.22;;;-3.36;70.64
76609;BME280;65928;53.936;27.540;2022-12-26T01:16:43;100219.63;;;-3.61;70.16
76609;BME280;65928;53.936;27.540;2022-12-26T01:19:10;100279.34;;;-3.49;70.16
76609;BME280;65928;53.936;27.540;2022-12-26T01:21:37;99935.22;;;-4.92;69.60
76609;BME280;65928;53.936;27.540;2022-12-26T01:27:25;100237.22;;;-3.46;70.08
76609;BME280;65928;53.936;27.540;2022-12-26T01:29:51;99960.31;;;-4.84;69.13
76609;BME280;65928;53.936;27.540;2022-12-26T01:39:00;99979.78;;;-4.95;68.78
76609;BME280;65928;53.936;27.540;2022-12-26T01:41:26;100213.78;;;-3.54;69.69
76609;BME280;65928;53.936;27.540;2022-12-26T01:49:46;100124.25;;;-4.25;70.02
76609;BME280;65928;53.936;27.540;2022-12-26T01:52:34;100201.63;;;-3.92;69.71
76609;BME280;65928;53.936;27.540;2022-12-26T01:55:04;100156.56;;;-4.06;69.84
76609;BME280;65928;53.936;27.540;2022-12-26T01:57:38;100151.41;;;-3.71;68.96
76609;BME280;65928;53.936;27.540;2022-12-26T02:00:06;100205.50;;;-3.41;69.15
76609;BME280;65928;53.936;27.540;2022-12-26T02:02:32;100007.06;;;-5.03;69.99
76609;BME280;65928;53.936;27.540;2022-12-26T02:05:17;100187.72;;;-3.63;68.99
76609;BME280;65928;53.936;27.540;2022-12-26T02:08:10;100087.78;;;-4.73;71.00
76609;BME280;65928;53.936;27.540;2022-12-26T02:13:36;100155.13;;;-4.61;71.39
76609;BME280;65928;53.936;27.540;2022-12-26T02:16:08;100100.00;;;-4.97;72.09
76609;BME280;65928;53.936;27.540;2022-12-26T02:18:34;99890.44;;;-5.63;71.07
76609;BME280;65928;53.936;27.540;2022-12-26T02:39:34;100184.81;;;-4.43;71.39
76609;BME280;65928;53.936;27.540;2022-12-26T02:45:38;100133.47;;;-4.34;70.70
76609;BME280;65928;53.936;27.540;2022-12-26T02:48:36;100183.75;;;-4.19;71.26
76609;BME280;65928;53.936;27.540;2022-12-26T03:04:00;100162.38;;;-4.47;70.96
76609;BME280;65928;53.936;27.540;2022-12-26T03:06:57;99906.38;;;-5.77;70.23
76609;BME280;65928;53.936;27.540;2022-12-26T03:09:44;100191.47;;;-4.20;71.00
76609;BME280;65928;53.936;27.540;2022-12-26T03:12:39;100014.03;;;-5.31;70.73
76609;BME280;65928;53.936;27.540;2022-12-26T03:15:28;100188.66;;;-4.29;70.84
76609;BME280;65928;53.936;27.540;2022-12-26T03:18:18;99965.13;;;-5.92;71.29
76609;BME280;65928;53.936;27.540;2022-12-26T03:20:45;100201.28;;;-4.06;69.52
76609;BME280;65928;53.936;27.540;2022-12-26T03:23:14;99890.44;;;-5.95;69.30
76609;BME280;65928;53.936;27.540;2022-12-26T03:25:54;100239.94;;;-4.09;69.84
76609;BME280;65928;53.936;27.540;2022-12-26T03:28:40;100231.81;;;-3.90;68.84
76609;BME280;65928;53.936;27.540;2022-12-26T03:31:11;100134.09;;;-4.10;68.47
76609;BME280;65928;53.936;27.540;2022-12-26T03:33:40;99971.94;;;-5.32;68.96
76609;BME280;65928;53.936;27.540;2022-12-26T03:42:12;100180.78;;;-4.01;68.49
76609;BME280;65928;53.936;27.540;2022-12-26T03:51:24;99844.91;;;-6.59;69.04
76609;BME280;65928;53.936;27.540;2022-12-26T03:54:21;100189.28;;;-4.69;68.79
76609;BME280;65928;53.936;27.540;2022-12-26T03:57:13;100197.91;;;-4.67;69.09
76609;BME280;65928;53.936;27.540;2022-12-26T04:00:04;100198.81;;;-4.35;68.04
76609;BME280;65928;53.936;27.540;2022-12-26T04:02:52;100246.03;;;-4.68;68.81
76609;BME280;65928;53.936;27.540;2022-12-26T04:05:39;99938.19;;;-6.05;67.66
76609;BME280;65928;53.936;27.540;2022-12-26T04:08:49;99850.22;;;-6.81;68.73
76609;BME280;65928;53.936;27.540;2022-12-26T04:11:37;100142.78;;;-4.72;68.64
76609;BME280;65928;53.936;27.540;2022-12-26T04:17:25;100189.50;;;-4.29;67.57
76609;BME280;65928;53.936;27.540;2022-12-26T04:20:33;100168.13;;;-4.56;67.73
76609;BME280;65928;53.936;27.540;2022-12-26T04:23:06;100096.97;;;-5.13;68.91
76609;BME280;65928;53.936;27.540;2022-12-26T04:26:16;100139.94;;;-5.11;69.68
76609;BME280;65928;53.936;27.540;2022-12-26T04:29:03;100178.03;;;-4.71;69.13
76609;BME280;65928;53.936;27.540;2022-12-26T04:32:10;100145.50;;;-4.97;68.80
76609;BME280;65928;53.936;27.540;2022-12-26T04:35:06;100107.63;;;-5.01;68.43
76609;BME280;65928;53.936;27.540;2022-12-26T04:37:55;100150.00;;;-5.20;70.68
76609;BME280;65928;53.936;27.540;2022-12-26T04:40:43;99813.59;;;-7.28;70.41
76609;BME280;65928;53.936;27.540;2022-12-26T04:43:30;99801.13;;;-7.45;71.01
76609;BME280;65928;53.936;27.540;2022-12-26T04:46:16;100136.03;;;-5.28;70.35
76609;BME280;65928;53.936;27.540;2022-12-26T04:48:44;100165.69;;;-5.12;70.64
76609;BME280;65928;53.936;27.540;2022-12-26T04:51:30;100009.81;;;-6.17;70.64
76609;BME280;65928;53.936;27.540;2022-12-26T04:53:55;100137.75;;;-4.97;70.24
76609;BME280;65928;53.936;27.540;2022-12-26T04:56:21;99788.28;;;-7.18;70.09
76609;BME280;65928;53.936;27.540;2022-12-26T04:58:46;99780.50;;;-7.21;70.40
76609;BME280;65928;53.936;27.540;2022-12-26T05:01:12;99817.97;;;-7.26;71.27
76609;BME280;65928;53.936;27.540;2022-12-26T05:03:56;100136.22;;;-5.50;71.60
76609;BME280;65928;53.936;27.540;2022-12-26T05:06:40;99988.59;;;-6.38;71.89
76609;BME280;65928;53.936;27.540;2022-12-26T05:09:25;100120.53;;;-5.58;72.03
76609;BME280;65928;53.936;27.540;2022-12-26T05:12:04;100091.69;;;-5.76;71.87
76609;BME280;65928;53.936;27.540;2022-12-26T05:14:30;100051.59;;;-5.97;72.99
76609;BME280;65928;53.936;27.540;2022-12-26T05:16:57;99824.19;;;-6.91;72.00
76609;BME280;65928;53.936;27.540;2022-12-26T05:19:41;100051.00;;;-5.59;71.91
76609;BME280;65928;53.936;27.540;2022-12-26T05:22:28;100122.97;;;-5.34;71.45
76609;BME280;65928;53.936;27.540;2022-12-26T05:25:19;100087.06;;;-5.58;71.23
76609;BME280;65928;53.936;27.540;2022-12-26T05:28:09;99766.25;;;-7.65;71.82
76609;BME280;65928;53.936;27.540;2022-12-26T05:30:54;99755.31;;;-7.32;70.87
76609;BME280;65928;53.936;27.540;2022-12-26T05:33:19;99796.97;;;-7.13;70.57
76609;BME280;65928;53.936;27.540;2022-12-26T05:36:03;100171.00;;;-5.63;70.98
76609;BME280;65928;53.936;27.540;2022-12-26T05:38:29;99783.63;;;-7.56;71.07
76609;BME280;65928;53.936;27.540;2022-12-26T05:40:54;100138.47;;;-5.32;70.65
76609;BME280;65928;53.936;27.540;2022-12-26T05:43:20;100141.28;;;-5.25;69.82
76609;BME280;65928;53.936;27.540;2022-12-26T05:45:45;100148.81;;;-5.31;70.10
76609;BME280;65928;53.936;27.540;2022-12-26T05:48:11;100065.28;;;-5.69;69.81
76609;BME280;65928;53.936;27.540;2022-12-26T05:50:36;100141.38;;;-5.77;71.12
76609;BME280;65928;53.936;27.540;2022-12-26T05:53:02;100136.50;;;-5.41;70.92
76609;BME280;65928;53.936;27.540;2022-12-26T05:55:28;100180.59;;;-5.30;70.55
76609;BME280;65928;53.936;27.540;2022-12-26T05:57:54;99783.66;;;-7.81;71.53
76609;BME280;65928;53.936;27.540;2022-12-26T06:00:20;99784.31;;;-7.62;71.37
76609;BME280;65928;53.936;27.540;2022-12-26T06:02:46;100186.44;;;-5.63;71.89
76609;BME280;65928;53.936;27.540;2022-12-26T06:05:11;100130.41;;;-5.71;72.19
76609;BME280;65928;53.936;27.540;2022-12-26T06:07:37;100122.22;;;-5.88;71.94
76609;BME280;65928;53.936;27.540;2022-12-26T06:10:03;99806.56;;;-7.61;72.09
76609;BME280;65928;53.936;27.540;2022-12-26T06:12:30;100126.19;;;-5.69;71.91
76609;BME280;65928;53.936;27.540;2022-12-26T06:14:56;100110.78;;;-5.39;71.34
76609;BME280;65928;53.936;27.540;2022-12-26T06:17:21;100124.81;;;-5.58;71.65
76609;BME280;65928;53.936;27.540;2022-12-26T06:19:47;100118.13;;;-5.52;71.31
76609;BME280;65928;53.936;27.540;2022-12-26T06:22:12;99811.59;;;-7.39;71.14
76609;BME280;65928;53.936;27.540;2022-12-26T06:24:38;99803.31;;;-7.28;70.95
76609;BME280;65928;53.936;27.540;2022-12-26T06:27:03;100118.69;;;-5.33;70.32
76609;BME280;65928;53.936;27.540;2022-12-26T06:29:31;100015.56;;;-5.97;70.11
76609;BME280;65928;53.936;27.540;2022-12-26T06:31:57;100131.38;;;-5.39;70.18
76609;BME280;65928;53.936;27.540;2022-12-26T06:34:22;100064.56;;;-5.65;70.01
76609;BME280;65928;53.936;27.540;2022-12-26T06:36:48;99927.25;;;-6.82;70.33
76609;BME280;65928;53.936;27.540;2022-12-26T06:39:13;100063.31;;;-6.33;71.83
76609;BME280;65928;53.936;27.540;2022-12-26T06:41:39;100129.06;;;-5.60;71.07
76609;BME280;65928;53.936;27.540;2022-12-26T06:44:04;100129.31;;;-5.79;71.34
76609;BME280;65928;53.936;27.540;2022-12-26T06:46:30;99790.69;;;-7.49;71.10
76609;BME280;65928;53.936;27.540;2022-12-26T06:48:55;99847.84;;;-7.28;71.67
76609;BME280;65928;53.936;27.540;2022-12-26T06:51:27;99745.63;;;-7.68;71.77
76609;BME280;65928;53.936;27.540;2022-12-26T06:53:53;99870.53;;;-6.88;71.37
76609;BME280;65928;53.936;27.540;2022-12-26T06:56:24;100128.41;;;-5.53;71.62
76609;BME280;65928;53.936;27.540;2022-12-26T06:58:57;100075.41;;;-5.75;71.50
76609;BME280;65928;53.936;27.540;2022-12-26T07:01:24;100111.66;;;-5.39;70.42
76609;BME280;65928;53.936;27.540;2022-12-26T07:03:54;100161.28;;;-5.71;71.02
76609;BME280;65928;53.936;27.540;2022-12-26T07:08:50;99815.31;;;-7.29;70.09
76609;BME280;65928;53.936;27.540;2022-12-26T07:11:17;99806.34;;;-7.42;70.68
76609;BME280;65928;53.936;27.540;2022-12-26T07:13:44;100162.81;;;-5.78;71.18
76609;BME280;65928;53.936;27.540;2022-12-26T07:16:09;99759.22;;;-7.70;70.85
76609;BME280;65928;53.936;27.540;2022-12-26T07:18:35;99812.25;;;-7.17;70.25
76609;BME280;65928;53.936;27.540;2022-12-26T07:21:05;99877.56;;;-7.09;71.23
76609;BME280;65928;53.936;27.540;2022-12-26T07:23:32;99763.91;;;-7.57;70.29
76609;BME280;65928;53.936;27.540;2022-12-26T07:25:57;100065.41;;;-5.66;70.55
76609;BME280;65928;53.936;27.540;2022-12-26T07:28:23;100025.59;;;-6.06;70.50
76609;BME280;65928;53.936;27.540;2022-12-26T07:30:49;100108.94;;;-5.43;70.21
76609;BME280;65928;53.936;27.540;2022-12-26T07:33:15;100081.31;;;-5.49;71.09
76609;BME280;65928;53.936;27.540;2022-12-26T07:35:41;100115.50;;;-5.55;70.74
76609;BME280;65928;53.936;27.540;2022-12-26T07:38:06;99766.84;;;-7.47;71.24
76609;BME280;65928;53.936;27.540;2022-12-26T07:40:32;100129.34;;;-5.50;71.10
76609;BME280;65928;53.936;27.540;2022-12-26T07:42:57;100108.38;;;-5.33;70.76
76609;BME280;65928;53.936;27.540;2022-12-26T07:45:23;100113.53;;;-5.33;70.47
76609;BME280;65928;53.936;27.540;2022-12-26T07:47:52;99751.03;;;-7.32;71.78
76609;BME280;65928;53.936;27.540;2022-12-26T07:50:18;100082.06;;;-5.23;71.34
76609;BME280;65928;53.936;27.540;2022-12-26T07:52:43;100101.31;;;-5.11;71.51
76609;BME280;65928;53.936;27.540;2022-12-26T07:55:09;100067.09;;;-5.66;72.56
76609;BME280;65928;53.936;27.540;2022-12-26T07:57:34;99733.28;;;-7.24;71.37
76609;BME280;65928;53.936;27.540;2022-12-26T08:00:00;99737.19;;;-7.09;71.31
76609;BME280;65928;53.936;27.540;2022-12-26T08:02:25;99758.53;;;-7.11;71.88
76609;BME280;65928;53.936;27.540;2022-12-26T08:04:50;99779.13;;;-7.10;71.91
76609;BME280;65928;53.936;27.540;2022-12-26T08:07:17;99728.59;;;-7.39;71.96
76609;BME280;65928;53.936;27.540;2022-12-26T08:09:42;99811.00;;;-7.03;72.39
76609;BME280;65928;53.936;27.540;2022-12-26T08:12:09;100082.59;;;-5.35;72.34
76609;BME280;65928;53.936;27.540;2022-12-26T08:14:38;100064.97;;;-5.21;72.15
76609;BME280;65928;53.936;27.540;2022-12-26T08:17:04;99944.81;;;-5.83;71.89
76609;BME280;65928;53.936;27.540;2022-12-26T08:19:30;100061.69;;;-5.16;71.33
76609;BME280;65928;53.936;27.540;2022-12-26T08:22:01;100021.97;;;-5.54;72.21
76609;BME280;65928;53.936;27.540;2022-12-26T08:24:27;100030.22;;;-5.65;72.30
76609;BME280;65928;53.936;27.540;2022-12-26T08:26:52;99685.38;;;-7.25;72.50
76609;BME280;65928;53.936;27.540;2022-12-26T08:29:18;100036.81;;;-5.15;72.09
76609;BME280;65928;53.936;27.540;2022-12-26T08:31:43;100022.25;;;-5.13;71.31
76609;BME280;65928;53.936;27.540;2022-12-26T08:34:09;100043.50;;;-5.20;71.57
76609;BME280;65928;53.936;27.540;2022-12-26T08:36:35;100028.00;;;-5.23;71.37
76609;BME280;65928;53.936;27.540;2022-12-26T08:39:00;99894.56;;;-6.00;71.60
76609;BME280;65928;53.936;27.540;2022-12-26T08:41:26;99987.00;;;-5.46;71.91
76609;BME280;65928;53.936;27.540;2022-12-26T08:43:55;100009.53;;;-5.38;71.65
76609;BME280;65928;53.936;27.540;2022-12-26T08:46:21;99682.28;;;-7.14;71.35
76609;BME280;65928;53.936;27.540;2022-12-26T08:48:48;99720.22;;;-7.05;71.65
76609;BME280;65928;53.936;27.540;2022-12-26T08:51:17;99632.94;;;-7.34;70.31
76609;BME280;65928;53.936;27.540;2022-12-26T08:53:44;99834.09;;;-5.18;69.67
76609;BME280;65928;53.936;27.540;2022-12-26T08:56:16;99997.25;;;-4.85;69.60
76609;BME280;65928;53.936;27.540;2022-12-26T08:58:42;99850.16;;;-5.62;69.75
76609;BME280;65928;53.936;27.540;2022-12-26T09:01:13;99982.59;;;-4.86;69.86
76609;BME280;65928;53.936;27.540;2022-12-26T09:03:39;99718.72;;;-6.68;70.70
76609;BME280;65928;53.936;27.540;2022-12-26T09:06:06;99996.38;;;-4.85;70.12
76609;BME280;65928;53.936;27.540;2022-12-26T09:08:32;99606.34;;;-6.75;69.73
76609;BME280;65928;53.936;27.540;2022-12-26T09:11:11;99994.69;;;-4.83;70.11
76609;BME280;65928;53.936;27.540;2022-12-26T09:13:37;99641.97;;;-6.87;69.79
76609;BME280;65928;53.936;27.540;2022-12-26T09:18:33;99703.84;;;-6.15;69.54
76609;BME280;65928;53.936;27.540;2022-12-26T09:21:01;99711.09;;;-6.33;69.51
76609;BME280;65928;53.936;27.540;2022-12-26T09:23:27;99674.03;;;-6.42;68.88
76609;BME280;65928;53.936;27.540;2022-12-26T09:25:53;100039.97;;;-4.26;68.56
76609;BME280;65928;53.936;27.540;2022-12-26T09:28:18;99940.69;;;-4.79;69.89
76609;BME280;65928;53.936;27.540;2022-12-26T09:30:43;99646.41;;;-6.49;70.61
76609;BME280;65928;53.936;27.540;2022-12-26T09:33:09;99696.88;;;-5.87;69.23
76609;BME280;65928;53.936;27.540;2022-12-26T09:35:38;99642.44;;;-6.37;69.25
76609;BME280;65928;53.936;27.540;2022-12-26T09:38:04;99674.66;;;-6.17;69.46
76609;BME280;65928;53.936;27.540;2022-12-26T09:40:35;99626.16;;;-6.38;70.01
76609;BME280;65928;53.936;27.540;2022-12-26T09:46:17;100004.38;;;-4.03;69.99
76609;BME280;65928;53.936;27.540;2022-12-26T09:48:57;99699.22;;;-5.59;69.86
76609;BME280;65928;53.936;27.540;2022-12-26T09:51:24;99936.16;;;-4.16;69.30
76609;BME280;65928;53.936;27.540;2022-12-26T09:53:51;99872.34;;;-4.62;70.19
76609;BME280;65928;53.936;27.540;2022-12-26T09:56:20;99993.56;;;-3.87;69.39
76609;BME280;65928;53.936;27.540;2022-12-26T09:58:56;99952.09;;;-3.95;69.10
76609;BME280;65928;53.936;27.540;2022-12-26T10:01:28;99652.13;;;-5.93;69.45
76609;BME280;65928;53.936;27.540;2022-12-26T10:03:59;99730.06;;;-5.62;70.58
76609;BME280;65928;53.936;27.540;2022-12-26T10:06:29;99607.44;;;-6.32;70.02
76609;BME280;65928;53.936;27.540;2022-12-26T10:09:35;99940.13;;;-4.30;70.41
76609;BME280;65928;53.936;27.540;2022-12-26T10:12:10;99932.59;;;-4.19;69.96
76609;BME280;65928;53.936;27.540;2022-12-26T10:14:58;99925.72;;;-4.20;68.93
76609;BME280;65928;53.936;27.540;2022-12-26T10:20:25;99917.00;;;-3.87;68.39
76609;BME280;65928;53.936;27.540;2022-12-26T10:25:24;99571.78;;;-5.79;67.79
76609;BME280;65928;53.936;27.540;2022-12-26T10:27:54;99551.94;;;-5.87;68.29
76609;BME280;65928;53.936;27.540;2022-12-26T10:30:23;99555.00;;;-6.02;68.50
76609;BME280;65928;53.936;27.540;2022-12-26T10:32:54;99909.84;;;-3.98;68.89
76609;BME280;65928;53.936;27.540;2022-12-26T10:35:38;99583.47;;;-5.94;69.04
76609;BME280;65928;53.936;27.540;2022-12-26T10:38:14;99837.47;;;-4.46;69.12
76609;BME280;65928;53.936;27.540;2022-12-26T10:40:43;99837.63;;;-4.37;68.98
76609;BME280;65928;53.936;27.540;2022-12-26T10:43:20;99883.22;;;-3.52;67.98
76609;BME280;65928;53.936;27.540;2022-12-26T10:48:49;99889.25;;;-3.95;69.08
76609;BME280;65928;53.936;27.540;2022-12-26T10:51:15;99881.41;;;-4.01;69.77
76609;BME280;65928;53.936;27.540;2022-12-26T10:53:46;99564.03;;;-5.82;69.18
76609;BME280;65928;53.936;27.540;2022-12-26T10:56:13;99543.38;;;-5.85;69.30
76609;BME280;65928;53.936;27.540;2022-12-26T10:58:39;99578.53;;;-5.45;69.34
76609;BME280;65928;53.936;27.540;2022-12-26T11:04:04;99798.47;;;-4.61;70.65
76609;BME280;65928;53.936;27.540;2022-12-26T11:06:36;99861.03;;;-3.88;70.03
76609;BME280;65928;53.936;27.540;2022-12-26T11:09:03;99864.69;;;-4.20;71.63
76609;BME280;65928;53.936;27.540;2022-12-26T11:11:31;99843.09;;;-4.23;72.16
76609;BME280;65928;53.936;27.540;2022-12-26T11:14:34;99832.94;;;-4.16;71.46
76609;BME280;65928;53.936;27.540;2022-12-26T11:17:05;99862.63;;;-4.36;72.20
76609;BME280;65928;53.936;27.540;2022-12-26T11:19:37;99823.94;;;-4.36;73.02
76609;BME280;65928;53.936;27.540;2022-12-26T11:27:40;99792.47;;;-4.18;72.39
76609;BME280;65928;53.936;27.540;2022-12-26T11:30:29;99780.19;;;-4.30;72.23
76609;BME280;65928;53.936;27.540;2022-12-26T11:35:34;99491.91;;;-5.43;71.28
76609;BME280;65928;53.936;27.540;2022-12-26T11:38:04;99441.41;;;-5.81;70.78
76609;BME280;65928;53.936;27.540;2022-12-26T11:40:38;99511.19;;;-5.23;70.34
76609;BME280;65928;53.936;27.540;2022-12-26T11:43:32;99444.28;;;-5.66;70.81
76609;BME280;65928;53.936;27.540;2022-12-26T11:45:58;99787.16;;;-3.81;70.98
76609;BME280;65928;53.936;27.540;2022-12-26T11:48:25;99436.94;;;-5.47;70.15
76609;BME280;65928;53.936;27.540;2022-12-26T11:50:51;99423.31;;;-5.87;70.72
76609;BME280;65928;53.936;27.540;2022-12-26T11:53:19;99755.03;;;-3.97;71.74
76609;BME280;65928;53.936;27.540;2022-12-26T11:56:03;99410.66;;;-5.74;71.06
76609;BME280;65928;53.936;27.540;2022-12-26T11:58:31;99415.88;;;-5.71;71.88
76609;BME280;65928;53.936;27.540;2022-12-26T12:03:43;99404.94;;;-5.59;70.09
76609;BME280;65928;53.936;27.540;2022-12-26T12:16:53;99725.63;;;-4.06;72.16
76609;BME280;65928;53.936;27.540;2022-12-26T12:25:19;99724.63;;;-4.13;72.64
76609;BME280;65928;53.936;27.540;2022-12-26T12:28:13;99702.22;;;-4.14;73.00
76609;BME280;65928;53.936;27.540;2022-12-26T12:36:19;99325.28;;;-6.02;72.92
76609;BME280;65928;53.936;27.540;2022-12-26T12:40:06;99661.50;;;-3.82;72.26
76609;BME280;65928;53.936;27.540;2022-12-26T12:47:51;99652.84;;;-3.84;72.44
76609;BME280;65928;53.936;27.540;2022-12-26T12:50:43;99633.44;;;-4.15;72.56
76609;BME280;65928;53.936;27.540;2022-12-26T12:55:58;99339.31;;;-5.82;72.70
76609;BME280;65928;53.936;27.540;2022-12-26T13:01:43;99637.16;;;-3.96;73.23
76609;BME280;65928;53.936;27.540;2022-12-26T13:04:20;99660.34;;;-3.99;72.75
76609;BME280;65928;53.936;27.540;2022-12-26T13:09:21;99554.06;;;-4.80;74.04
76609;BME280;65928;53.936;27.540;2022-12-26T13:11:51;99664.44;;;-4.12;73.85
76609;BME280;65928;53.936;27.540;2022-12-26T13:14:26;99611.94;;;-4.14;73.98
76609;BME280;65928;53.936;27.540;2022-12-26T13:16:57;99527.00;;;-4.56;74.19
76609;BME280;65928;53.936;27.540;2022-12-26T13:19:34;99338.09;;;-5.55;73.39
76609;BME280;65928;53.936;27.540;2022-12-26T13:22:08;99459.84;;;-4.63;73.28
76609;BME280;65928;53.936;27.540;2022-12-26T13:24:43;99232.97;;;-5.83;72.34
76609;BME280;65928;53.936;27.540;2022-12-26T13:29:44;99278.16;;;-6.00;74.20
76609;BME280;65928;53.936;27.540;2022-12-26T13:34:42;99579.88;;;-3.73;72.70
76609;BME280;65928;53.936;27.540;2022-12-26T13:39:58;99577.16;;;-3.20;71.31
76609;BME280;65928;53.936;27.540;2022-12-26T13:42:32;99583.81;;;-3.37;71.79
76609;BME280;65928;53.936;27.540;2022-12-26T13:50:54;99560.09;;;-3.75;72.77
76609;BME280;65928;53.936;27.540;2022-12-26T13:53:38;99569.34;;;-3.88;73.75
76609;BME280;65928;53.936;27.540;2022-12-26T14:04:39;99590.94;;;-3.20;71.99
76609;BME280;65928;53.936;27.540;2022-12-26T14:07:26;99600.81;;;-3.54;73.49
76609;BME280;65928;53.936;27.540;2022-12-26T14:15:27;99553.97;;;-3.16;72.53
76609;BME280;65928;53.936;27.540;2022-12-26T14:23:36;99542.72;;;-3.21;73.63
76609;BME280;65928;53.936;27.540;2022-12-26T14:26:40;99525.06;;;-3.55;74.05
76609;BME280;65928;53.936;27.540;2022-12-26T14:35:42;99325.03;;;-4.58;74.07
76609;BME280;65928;53.936;27.540;2022-12-26T14:41:12;99445.28;;;-4.00;74.88
76609;BME280;65928;53.936;27.540;2022-12-26T14:44:39;99468.88;;;-3.74;74.61
76609;BME280;65928;53.936;27.540;2022-12-26T14:47:03;99224.94;;;-4.90;75.44
76609;BME280;65928;53.936;27.540;2022-12-26T14:54:50;99204.78;;;-5.20;76.05
76609;BME280;65928;53.936;27.540;2022-12-26T15:00:38;99447.41;;;-3.69;77.90
76609;BME280;65928;53.936;27.540;2022-12-26T15:05:47;99468.22;;;-3.55;78.19
76609;BME280;65928;53.936;27.540;2022-12-26T15:08:45;99100.06;;;-5.82;78.03
76609;BME280;65928;53.936;27.540;2022-12-26T15:14:00;99433.25;;;-3.29;79.56
76609;BME280;65928;53.936;27.540;2022-12-26T15:33:50;99054.53;;;-5.22;76.58
76609;BME280;65928;53.936;27.540;2022-12-26T15:53:18;99335.00;;;-3.35;79.05
76609;BME280;65928;53.936;27.540;2022-12-26T16:01:55;99313.28;;;-3.58;77.97
76609;BME280;65928;53.936;27.540;2022-12-26T16:04:31;98976.53;;;-5.10;79.39
76609;BME280;65928;53.936;27.540;2022-12-26T16:07:23;99305.59;;;-3.50;78.45
76609;BME280;65928;53.936;27.540;2022-12-26T16:09:56;99297.25;;;-3.19;79.38
76609;BME280;65928;53.936;27.540;2022-12-26T16:16:04;99292.16;;;-3.09;80.91
76609;BME280;65928;53.936;27.540;2022-12-26T16:18:31;98948.22;;;-5.10;79.46
76609;BME280;65928;53.936;27.540;2022-12-26T16:21:00;98912.03;;;-5.24;78.84
76609;BME280;65928;53.936;27.540;2022-12-26T16:27:11;98949.09;;;-5.07;80.10
76609;BME280;65928;53.936;27.540;2022-12-26T16:29:45;99307.53;;;-3.22;79.61
76609;BME280;65928;53.936;27.540;2022-12-26T16:32:16;99158.25;;;-3.72;79.41
76609;BME280;65928;53.936;27.540;2022-12-26T16:34:42;99203.31;;;-3.29;80.28
76609;BME280;65928;53.936;27.540;2022-12-26T16:40:50;99211.31;;;-2.84;78.98
76609;BME280;65928;53.936;27.540;2022-12-26T16:45:44;98870.38;;;-4.76;78.92
76609;BME280;65928;53.936;27.540;2022-12-26T16:48:13;99225.09;;;-2.88;78.74
76609;BME280;65928;53.936;27.540;2022-12-26T16:50:55;99176.84;;;-2.83;80.23
76609;BME280;65928;53.936;27.540;2022-12-26T16:53:39;99182.72;;;-3.14;79.04
76609;BME280;65928;53.936;27.540;2022-12-26T16:56:39;99182.94;;;-2.72;78.29
76609;BME280;65928;53.936;27.540;2022-12-26T16:59:20;99153.63;;;-2.74;78.51
76609;BME280;65928;53.936;27.540;2022-12-26T17:01:54;98840.31;;;-4.70;79.50
76609;BME280;65928;53.936;27.540;2022-12-26T17:07:45;99108.78;;;-2.88;81.15
76609;BME280;65928;53.936;27.540;2022-12-26T17:10:37;99163.13;;;-2.62;79.60
76609;BME280;65928;53.936;27.540;2022-12-26T17:13:05;98920.66;;;-3.97;80.08
76609;BME280;65928;53.936;27.540;2022-12-26T17:15:36;98950.88;;;-3.72;79.96
76609;BME280;65928;53.936;27.540;2022-12-26T17:18:50;99151.06;;;-2.72;80.77
76609;BME280;65928;53.936;27.540;2022-12-26T17:20:50;98778.53;;;-4.61;80.56
76609;BME280;65928;53.936;27.540;2022-12-26T17:23:33;98799.31;;;-4.24;79.58
76609;BME280;65928;53.936;27.540;2022-12-26T17:26:23;98933.72;;;-3.53;79.45
76609;BME280;65928;53.936;27.540;2022-12-26T17:28:51;98813.09;;;-4.13;80.03
76609;BME280;65928;53.936;27.540;2022-12-26T17:35:11;99142.47;;;-2.48;79.88
76609;BME280;65928;53.936;27.540;2022-12-26T17:37:37;98891.56;;;-3.49;80.83
76609;BME280;65928;53.936;27.540;2022-12-26T17:42:50;98792.44;;;-4.13;78.98
76609;BME280;65928;53.936;27.540;2022-12-26T17:45:26;99090.78;;;-2.29;80.04